createdAt,value
2018-05-23T00:00:17.487Z,19.31
2018-05-23T00:01:17.430Z,19.34
2018-05-23T00:02:17.372Z,19.37
2018-05-23T00:03:17.311Z,19.37
2018-05-23T00:04:17.252Z,19.34
2018-05-23T00:05:17.193Z,19.34
2018-05-23T00:06:17.131Z,19.40
2018-05-23T00:07:17.074Z,19.34
2018-05-23T00:08:17.013Z,19.31
2018-05-23T00:09:16.954Z,19.30
2018-05-23T00:10:16.901Z,19.22
2018-05-23T00:11:16.837Z,19.22
2018-05-23T00:12:16.777Z,19.24
2018-05-23T00:13:16.716Z,19.24
2018-05-23T00:14:16.656Z,19.22
2018-05-23T00:15:16.599Z,19.22
2018-05-23T00:16:16.537Z,19.30
2018-05-23T00:17:16.479Z,19.29
2018-05-23T00:18:16.422Z,19.26
2018-05-23T00:19:16.358Z,19.30
2018-05-23T00:20:16.299Z,19.27
2018-05-23T00:21:16.238Z,19.22
2018-05-23T00:22:16.180Z,19.27
2018-05-23T00:23:16.120Z,19.22
2018-05-23T00:24:16.061Z,19.22
2018-05-23T00:25:16.005Z,19.31
2018-05-23T00:26:15.938Z,19.18
2018-05-23T00:27:15.881Z,19.14
2018-05-23T00:28:15.831Z,19.08
2018-05-23T00:29:15.763Z,19.16
2018-05-23T00:30:15.705Z,19.04
2018-05-23T00:31:15.641Z,19.04
2018-05-23T00:32:15.582Z,18.99
2018-05-23T00:33:15.523Z,19.04
2018-05-23T00:34:15.465Z,19.11
2018-05-23T00:35:15.408Z,19.04
2018-05-23T00:36:15.346Z,19.08
2018-05-23T00:37:15.289Z,19.08
2018-05-23T00:38:15.224Z,19.04
2018-05-23T00:39:15.165Z,19.08
2018-05-23T00:40:15.105Z,19.08
2018-05-23T00:41:15.043Z,19.04
2018-05-23T00:42:14.988Z,19.08
2018-05-23T00:43:14.928Z,19.02
2018-05-23T00:44:14.867Z,19.02
2018-05-23T00:45:14.815Z,18.99
2018-05-23T00:46:14.748Z,18.99
2018-05-23T00:47:14.687Z,18.86
2018-05-23T00:48:14.642Z,18.96
2018-05-23T00:49:14.569Z,18.98
2018-05-23T00:50:14.653Z,18.98
2018-05-23T00:51:14.445Z,18.88
2018-05-23T00:52:14.383Z,18.93
2018-05-23T00:53:14.332Z,18.90
2018-05-23T00:54:14.270Z,18.83
2018-05-23T00:55:14.214Z,18.88
2018-05-23T00:56:14.151Z,18.86
2018-05-23T00:57:14.090Z,18.81
2018-05-23T00:58:14.029Z,18.78
2018-05-23T00:59:13.969Z,18.83
2018-05-23T01:00:13.909Z,18.75
2018-05-23T01:01:13.849Z,18.83
2018-05-23T01:02:13.798Z,18.78
2018-05-23T01:03:13.732Z,18.78
2018-05-23T01:04:13.675Z,18.83
2018-05-23T01:05:13.608Z,18.71
2018-05-23T01:06:13.553Z,18.73
2018-05-23T01:07:13.491Z,18.66
2018-05-23T01:08:13.435Z,18.71
2018-05-23T01:09:13.386Z,18.75
2018-05-23T01:10:13.310Z,18.74
2018-05-23T01:11:13.250Z,18.70
2018-05-23T01:12:13.190Z,18.68
2018-05-23T01:13:13.134Z,18.62
2018-05-23T01:14:13.076Z,18.74
2018-05-23T01:15:13.013Z,18.71
2018-05-23T01:16:12.954Z,18.74
2018-05-23T01:17:12.916Z,18.63
2018-05-23T01:18:12.837Z,18.74
2018-05-23T01:19:12.771Z,18.66
2018-05-23T01:20:12.713Z,18.74
2018-05-23T01:21:12.653Z,18.66
2018-05-23T01:22:12.589Z,18.68
2018-05-23T01:23:12.532Z,18.55
2018-05-23T01:24:12.469Z,18.65
2018-05-23T01:25:12.410Z,18.58
2018-05-23T01:26:12.351Z,18.62
2018-05-23T01:27:12.291Z,18.62
2018-05-23T01:28:12.233Z,18.59
2018-05-23T01:29:12.171Z,18.52
2018-05-23T01:30:12.111Z,18.53
2018-05-23T01:31:12.052Z,18.49
2018-05-23T01:32:11.983Z,18.47
2018-05-23T01:33:11.932Z,18.52
2018-05-23T01:34:11.869Z,18.49
2018-05-23T01:35:11.811Z,18.49
2018-05-23T01:36:11.749Z,18.47
2018-05-23T01:37:11.687Z,18.47
2018-05-23T01:38:11.634Z,18.40
2018-05-23T01:39:11.572Z,18.37
2018-05-23T01:40:11.509Z,18.28
2018-05-23T01:41:11.449Z,18.28
2018-05-23T01:42:11.387Z,18.26
2018-05-23T01:43:11.327Z,18.25
2018-05-23T01:44:11.269Z,18.28
2018-05-23T01:45:11.209Z,18.29
2018-05-23T01:46:11.146Z,18.33
2018-05-23T01:47:11.090Z,18.25
2018-05-23T01:48:11.027Z,18.20
2018-05-23T01:49:10.967Z,18.28
2018-05-23T01:50:10.903Z,18.35
2018-05-23T01:51:10.844Z,18.20
2018-05-23T01:52:10.788Z,18.23
2018-05-23T01:53:10.728Z,18.20
2018-05-23T01:54:10.662Z,18.23
2018-05-23T01:55:10.604Z,18.25
2018-05-23T01:56:10.543Z,18.22
2018-05-23T01:57:10.482Z,18.18
2018-05-23T01:58:10.420Z,18.16
2018-05-23T01:59:10.362Z,18.13
2018-05-23T02:00:10.303Z,18.10
2018-05-23T02:01:10.240Z,18.07
2018-05-23T02:02:10.179Z,18.05
2018-05-23T02:03:10.119Z,18.07
2018-05-23T02:04:10.057Z,18.05
2018-05-23T02:05:10.000Z,18.04
2018-05-23T02:06:09.936Z,17.98
2018-05-23T02:07:09.877Z,18.00
2018-05-23T02:08:09.817Z,18.00
2018-05-23T02:09:09.758Z,17.97
2018-05-23T02:10:09.701Z,17.94
2018-05-23T02:11:09.637Z,17.86
2018-05-23T02:12:09.576Z,17.83
2018-05-23T02:13:09.517Z,17.80
2018-05-23T02:14:09.453Z,17.85
2018-05-23T02:15:09.394Z,17.87
2018-05-23T02:16:09.332Z,17.87
2018-05-23T02:17:09.275Z,17.87
2018-05-23T02:18:09.217Z,17.87
2018-05-23T02:19:09.151Z,17.79
2018-05-23T02:20:09.093Z,17.80
2018-05-23T02:21:09.032Z,17.79
2018-05-23T02:22:08.973Z,17.72
2018-05-23T02:23:08.910Z,17.67
2018-05-23T02:24:08.848Z,17.74
2018-05-23T02:25:08.798Z,17.72
2018-05-23T02:26:08.724Z,17.71
2018-05-23T02:27:08.665Z,17.74
2018-05-23T02:28:08.607Z,17.72
2018-05-23T02:29:08.544Z,17.70
2018-05-23T02:30:08.484Z,17.70
2018-05-23T02:31:08.424Z,17.70
2018-05-23T02:32:08.369Z,17.74
2018-05-23T02:33:08.302Z,17.65
2018-05-23T02:34:08.240Z,17.67
2018-05-23T02:35:08.179Z,17.71
2018-05-23T02:36:08.119Z,17.67
2018-05-23T02:37:08.058Z,17.70
2018-05-23T02:38:07.999Z,17.64
2018-05-23T02:39:07.946Z,17.65
2018-05-23T02:40:07.884Z,17.65
2018-05-23T02:41:07.817Z,17.68
2018-05-23T02:42:07.761Z,17.60
2018-05-23T02:43:07.702Z,17.63
2018-05-23T02:44:07.634Z,17.64
2018-05-23T02:45:07.576Z,17.68
2018-05-23T02:46:07.516Z,17.52
2018-05-23T02:47:07.487Z,17.54
2018-05-23T02:48:07.388Z,17.56
2018-05-23T02:49:07.331Z,17.51
2018-05-23T02:50:07.268Z,17.56
2018-05-23T02:51:07.210Z,17.56
2018-05-23T02:52:07.150Z,17.54
2018-05-23T02:53:07.088Z,17.60
2018-05-23T02:54:07.021Z,17.54
2018-05-23T02:55:06.962Z,17.54
2018-05-23T02:56:06.904Z,17.57
2018-05-23T02:57:06.844Z,17.51
2018-05-23T02:58:06.780Z,17.56
2018-05-23T02:59:06.724Z,17.49
2018-05-23T03:00:06.660Z,17.42
2018-05-23T03:01:06.601Z,17.48
2018-05-23T03:02:06.536Z,17.51
2018-05-23T03:03:06.548Z,17.63
2018-05-23T03:04:06.421Z,17.51
2018-05-23T03:05:06.365Z,17.52
2018-05-23T03:06:06.289Z,17.59
2018-05-23T03:07:06.233Z,17.48
2018-05-23T03:08:06.175Z,17.49
2018-05-23T03:09:06.108Z,17.52
2018-05-23T03:10:06.051Z,17.54
2018-05-23T03:11:05.993Z,17.54
2018-05-23T03:12:05.928Z,17.46
2018-05-23T03:13:05.867Z,17.54
2018-05-23T03:14:05.809Z,17.45
2018-05-23T03:15:05.748Z,17.57
2018-05-23T03:16:05.686Z,17.56
2018-05-23T03:17:05.622Z,17.52
2018-05-23T03:18:05.557Z,17.49
2018-05-23T03:19:05.500Z,17.52
2018-05-23T03:20:05.437Z,17.48
2018-05-23T03:21:05.383Z,17.54
2018-05-23T03:22:05.329Z,17.39
2018-05-23T03:23:05.256Z,17.52
2018-05-23T03:24:05.198Z,17.48
2018-05-23T03:25:05.139Z,17.51
2018-05-23T03:26:05.088Z,17.49
2018-05-23T03:27:05.013Z,17.49
2018-05-23T03:28:04.955Z,17.49
2018-05-23T03:29:04.891Z,17.49
2018-05-23T03:30:04.830Z,17.41
2018-05-23T03:31:04.782Z,17.42
2018-05-23T03:32:04.704Z,17.54
2018-05-23T03:33:04.649Z,17.44
2018-05-23T03:34:04.593Z,17.44
2018-05-23T03:35:04.524Z,17.42
2018-05-23T03:36:04.467Z,17.36
2018-05-23T03:37:04.405Z,17.44
2018-05-23T03:38:04.341Z,17.36
2018-05-23T03:39:04.281Z,17.34
2018-05-23T03:40:04.220Z,17.34
2018-05-23T03:41:04.159Z,17.42
2018-05-23T03:42:04.096Z,17.38
2018-05-23T03:43:04.038Z,17.44
2018-05-23T03:44:03.976Z,17.44
2018-05-23T03:45:03.916Z,17.44
2018-05-23T03:46:03.855Z,17.39
2018-05-23T03:47:03.797Z,17.44
2018-05-23T03:48:03.738Z,17.42
2018-05-23T03:49:03.672Z,17.48
2018-05-23T03:50:03.610Z,17.41
2018-05-23T03:51:03.549Z,17.54
2018-05-23T03:52:03.488Z,17.48
2018-05-23T03:53:03.426Z,17.45
2018-05-23T03:54:03.928Z,17.51
2018-05-23T03:55:03.315Z,17.48
2018-05-23T03:56:03.246Z,17.39
2018-05-23T03:57:03.186Z,17.54
2018-05-23T03:58:03.121Z,17.45
2018-05-23T03:59:03.060Z,17.49
2018-05-23T04:00:03.005Z,17.45
2018-05-23T04:01:02.941Z,17.46
2018-05-23T04:02:02.875Z,17.49
2018-05-23T04:03:02.820Z,17.51
2018-05-23T04:04:02.761Z,17.46
2018-05-23T04:05:02.702Z,17.54
2018-05-23T04:06:02.636Z,17.52
2018-05-23T04:07:02.575Z,17.54
2018-05-23T04:08:02.515Z,17.59
2018-05-23T04:09:02.455Z,17.54
2018-05-23T04:10:02.389Z,17.51
2018-05-23T04:11:02.323Z,17.56
2018-05-23T04:12:02.273Z,17.51
2018-05-23T04:13:02.207Z,17.60
2018-05-23T04:14:02.148Z,17.63
2018-05-23T04:15:02.095Z,17.65
2018-05-23T04:16:02.026Z,17.67
2018-05-23T04:17:01.974Z,17.71
2018-05-23T04:18:01.909Z,17.74
2018-05-23T04:19:01.844Z,17.67
2018-05-23T04:20:01.783Z,17.63
2018-05-23T04:21:01.726Z,17.67
2018-05-23T04:22:01.658Z,17.64
2018-05-23T04:23:01.598Z,17.52
2018-05-23T04:24:01.542Z,17.68
2018-05-23T04:25:01.588Z,17.68
2018-05-23T04:26:01.419Z,17.70
2018-05-23T04:27:01.360Z,17.70
2018-05-23T04:28:01.295Z,17.67
2018-05-23T04:29:01.236Z,17.71
2018-05-23T04:30:01.181Z,17.68
2018-05-23T04:31:01.114Z,17.80
2018-05-23T04:32:01.050Z,17.72
2018-05-23T04:33:00.995Z,17.76
2018-05-23T04:34:00.929Z,17.78
2018-05-23T04:35:00.873Z,17.76
2018-05-23T04:36:00.808Z,17.86
2018-05-23T04:37:00.742Z,17.79
2018-05-23T04:38:00.688Z,17.85
2018-05-23T04:39:00.636Z,17.89
2018-05-23T04:40:00.571Z,17.83
2018-05-23T04:41:00.510Z,17.94
2018-05-23T04:42:00.448Z,17.89
2018-05-23T04:43:00.379Z,17.92
2018-05-23T04:44:00.330Z,17.97
2018-05-23T04:45:00.260Z,17.90
2018-05-23T04:46:00.200Z,17.95
2018-05-23T04:47:00.143Z,18.03
2018-05-23T04:48:00.080Z,18.05
2018-05-23T04:49:00.023Z,18.07
2018-05-23T04:49:59.962Z,18.05
2018-05-23T04:50:59.907Z,18.20
2018-05-23T04:51:59.840Z,18.25
2018-05-23T04:52:59.780Z,18.25
2018-05-23T04:53:59.722Z,18.25
2018-05-23T04:54:59.655Z,18.28
2018-05-23T04:55:59.595Z,18.35
2018-05-23T04:56:59.534Z,18.25
2018-05-23T04:57:59.475Z,18.31
2018-05-23T04:58:59.415Z,18.50
2018-05-23T04:59:59.352Z,18.75
2018-05-23T05:00:59.295Z,19.02
2018-05-23T05:01:59.231Z,19.33
2018-05-23T05:02:59.176Z,19.81
2018-05-23T05:03:59.113Z,20.25
2018-05-23T05:04:59.052Z,20.67
2018-05-23T05:05:58.991Z,21.02
2018-05-23T05:06:58.929Z,21.33
2018-05-23T05:07:58.870Z,21.80
2018-05-23T05:08:58.813Z,22.32
2018-05-23T05:09:58.818Z,22.83
2018-05-23T05:10:58.692Z,23.15
2018-05-23T05:11:58.631Z,23.50
2018-05-23T05:12:58.573Z,23.83
2018-05-23T05:13:58.510Z,24.03
2018-05-23T05:14:58.451Z,23.93
2018-05-23T05:15:58.388Z,23.23
2018-05-23T05:16:58.336Z,22.33
2018-05-23T05:17:58.276Z,21.58
2018-05-23T05:18:58.217Z,20.93
2018-05-23T05:19:58.163Z,20.62
2018-05-23T05:20:58.097Z,20.40
2018-05-23T05:21:58.042Z,20.18
2018-05-23T05:22:57.983Z,20.02
2018-05-23T05:23:57.919Z,19.86
2018-05-23T05:24:57.883Z,19.86
2018-05-23T05:25:57.804Z,19.85
2018-05-23T05:26:57.744Z,19.76
2018-05-23T05:27:57.684Z,19.70
2018-05-23T05:28:57.627Z,19.70
2018-05-23T05:29:57.597Z,19.52
2018-05-23T05:30:57.512Z,19.62
2018-05-23T05:31:57.451Z,19.55
2018-05-23T05:32:57.395Z,19.66
2018-05-23T05:33:57.336Z,19.49
2018-05-23T05:34:57.273Z,19.47
2018-05-23T05:35:57.216Z,19.63
2018-05-23T05:36:57.159Z,19.73
2018-05-23T05:37:57.104Z,19.70
2018-05-23T05:38:57.044Z,19.67
2018-05-23T05:39:56.977Z,19.84
2018-05-23T05:40:56.919Z,19.91
2018-05-23T05:41:56.859Z,19.92
2018-05-23T05:42:56.802Z,19.99
2018-05-23T05:43:56.747Z,20.02
2018-05-23T05:44:56.684Z,20.04
2018-05-23T05:45:56.622Z,20.06
2018-05-23T05:46:56.571Z,20.07
2018-05-23T05:47:56.514Z,20.09
2018-05-23T05:48:56.446Z,19.96
2018-05-23T05:49:56.395Z,20.04
2018-05-23T05:50:56.328Z,20.06
2018-05-23T05:51:56.265Z,20.04
2018-05-23T05:52:56.207Z,20.07
2018-05-23T05:53:56.151Z,20.22
2018-05-23T05:54:56.098Z,20.29
2018-05-23T05:55:56.032Z,20.48
2018-05-23T05:56:55.978Z,20.48
2018-05-23T05:57:55.916Z,20.37
2018-05-23T05:58:55.854Z,20.48
2018-05-23T05:59:55.796Z,20.58
2018-05-23T06:00:55.738Z,20.50
2018-05-23T06:01:55.764Z,20.37
2018-05-23T06:02:55.620Z,20.41
2018-05-23T06:03:55.565Z,20.47
2018-05-23T06:04:55.507Z,20.48
2018-05-23T06:05:55.466Z,20.39
2018-05-23T06:06:55.382Z,20.50
2018-05-23T06:07:55.329Z,20.59
2018-05-23T06:08:55.272Z,20.72
2018-05-23T06:09:55.268Z,20.63
2018-05-23T06:10:55.153Z,20.47
2018-05-23T06:11:55.090Z,20.40
2018-05-23T06:12:55.031Z,20.51
2018-05-23T06:13:54.976Z,20.60
2018-05-23T06:14:54.915Z,20.52
2018-05-23T06:15:54.855Z,20.59
2018-05-23T06:16:54.799Z,20.56
2018-05-23T06:17:54.745Z,20.66
2018-05-23T06:18:54.675Z,20.65
2018-05-23T06:19:54.620Z,20.75
2018-05-23T06:20:54.561Z,20.78
2018-05-23T06:21:54.504Z,20.75
2018-05-23T06:22:54.447Z,20.75
2018-05-23T06:23:54.386Z,20.85
2018-05-23T06:24:54.327Z,20.84
2018-05-23T06:25:54.272Z,20.88
2018-05-23T06:26:54.212Z,20.95
2018-05-23T06:27:54.152Z,20.87
2018-05-23T06:28:54.098Z,20.92
2018-05-23T06:29:54.038Z,21.00
2018-05-23T06:30:53.978Z,21.07
2018-05-23T06:31:53.914Z,21.14
2018-05-23T06:32:53.861Z,21.22
2018-05-23T06:33:53.804Z,21.24
2018-05-23T06:34:53.747Z,21.30
2018-05-23T06:35:53.693Z,21.32
2018-05-23T06:36:53.650Z,21.36
2018-05-23T06:37:53.652Z,21.43
2018-05-23T06:38:53.510Z,21.45
2018-05-23T06:39:53.457Z,21.52
2018-05-23T06:40:53.397Z,21.54
2018-05-23T06:41:53.335Z,21.43
2018-05-23T06:42:53.275Z,21.52
2018-05-23T06:43:53.219Z,21.57
2018-05-23T06:44:53.162Z,21.55
2018-05-23T06:45:53.110Z,21.60
2018-05-23T06:46:53.052Z,21.46
2018-05-23T06:47:52.989Z,21.43
2018-05-23T06:48:52.932Z,21.52
2018-05-23T06:49:52.874Z,21.60
2018-05-23T06:50:52.811Z,21.55
2018-05-23T06:51:52.756Z,21.58
2018-05-23T06:52:52.699Z,21.62
2018-05-23T06:53:52.644Z,21.61
2018-05-23T06:54:52.587Z,21.67
2018-05-23T06:55:52.523Z,21.75
2018-05-23T06:56:52.466Z,21.85
2018-05-23T06:57:52.412Z,21.76
2018-05-23T06:58:52.351Z,21.98
2018-05-23T06:59:52.296Z,22.00
2018-05-23T07:00:52.243Z,21.98
2018-05-23T07:01:52.176Z,21.92
2018-05-23T07:02:52.118Z,21.95
2018-05-23T07:03:52.063Z,21.85
2018-05-23T07:04:52.005Z,21.85
2018-05-23T07:05:51.961Z,21.93
2018-05-23T07:06:51.892Z,21.99
2018-05-23T07:07:51.833Z,21.93
2018-05-23T07:08:51.777Z,21.99
2018-05-23T07:09:51.715Z,22.02
2018-05-23T07:10:51.658Z,22.00
2018-05-23T07:11:51.604Z,22.15
2018-05-23T07:12:51.545Z,22.17
2018-05-23T07:13:51.483Z,22.14
2018-05-23T07:14:51.429Z,22.25
2018-05-23T07:15:51.374Z,22.23
2018-05-23T07:16:51.313Z,22.26
2018-05-23T07:17:51.370Z,22.25
2018-05-23T07:18:51.988Z,22.23
2018-05-23T07:19:52.073Z,22.32
2018-05-23T07:20:51.200Z,22.29
2018-05-23T07:21:51.297Z,22.13
2018-05-23T07:22:51.109Z,22.13
2018-05-23T07:23:51.300Z,22.25
2018-05-23T07:24:51.176Z,22.28
2018-05-23T07:25:50.909Z,22.28
2018-05-23T07:26:51.131Z,22.26
2018-05-23T07:27:51.010Z,22.32
2018-05-23T07:28:50.646Z,22.28
2018-05-23T07:29:50.570Z,22.25
2018-05-23T07:30:50.517Z,22.30
2018-05-23T07:31:50.597Z,22.30
2018-05-23T07:32:50.412Z,22.23
2018-05-23T07:33:50.395Z,22.32
2018-05-23T07:34:50.299Z,22.30
2018-05-23T07:35:50.227Z,22.39
2018-05-23T07:36:50.177Z,22.45
2018-05-23T07:37:50.124Z,22.47
2018-05-23T07:38:50.070Z,22.41
2018-05-23T07:39:50.012Z,22.41
2018-05-23T07:40:49.943Z,22.35
2018-05-23T07:41:49.897Z,22.38
2018-05-23T07:42:49.827Z,22.50
2018-05-23T07:43:49.778Z,22.51
2018-05-23T07:44:49.743Z,22.65
2018-05-23T07:45:49.740Z,22.69
2018-05-23T07:46:49.621Z,22.63
2018-05-23T07:47:49.539Z,22.72
2018-05-23T07:48:49.478Z,22.83
2018-05-23T07:49:49.435Z,22.76
2018-05-23T07:50:49.370Z,22.76
2018-05-23T07:51:49.319Z,22.75
2018-05-23T07:52:49.257Z,22.76
2018-05-23T07:53:49.197Z,22.78
2018-05-23T07:54:49.157Z,22.88
2018-05-23T07:55:49.084Z,22.87
2018-05-23T07:56:49.025Z,22.88
2018-05-23T07:57:48.972Z,22.93
2018-05-23T07:58:48.916Z,22.91
2018-05-23T07:59:48.856Z,22.96
2018-05-23T08:00:48.801Z,22.98
2018-05-23T08:01:48.743Z,22.98
2018-05-23T08:02:48.687Z,23.02
2018-05-23T08:03:48.632Z,23.15
2018-05-23T08:04:48.576Z,23.20
2018-05-23T08:05:48.516Z,23.25
2018-05-23T08:06:48.464Z,23.21
2018-05-23T08:07:48.412Z,23.20
2018-05-23T08:08:48.357Z,23.27
2018-05-23T08:09:48.293Z,23.24
2018-05-23T08:10:48.237Z,23.32
2018-05-23T08:11:48.199Z,23.36
2018-05-23T08:12:48.122Z,23.44
2018-05-23T08:13:48.063Z,23.41
2018-05-23T08:14:48.005Z,23.41
2018-05-23T08:15:47.954Z,23.43
2018-05-23T08:16:47.897Z,23.50
2018-05-23T08:17:47.851Z,23.58
2018-05-23T08:18:47.786Z,23.54
2018-05-23T08:19:47.724Z,23.55
2018-05-23T08:20:47.732Z,23.63
2018-05-23T08:21:47.614Z,23.66
2018-05-23T08:22:47.564Z,23.63
2018-05-23T08:23:47.502Z,23.65
2018-05-23T08:24:47.444Z,23.68
2018-05-23T08:25:47.388Z,23.65
2018-05-23T08:26:47.330Z,23.61
2018-05-23T08:27:47.279Z,23.66
2018-05-23T08:28:47.220Z,23.62
2018-05-23T08:29:47.222Z,23.68
2018-05-23T08:30:47.149Z,23.65
2018-05-23T08:31:47.052Z,23.69
2018-05-23T08:32:46.994Z,23.61
2018-05-23T08:33:46.936Z,23.66
2018-05-23T08:34:46.881Z,23.71
2018-05-23T08:35:46.842Z,23.62
2018-05-23T08:36:46.771Z,23.62
2018-05-23T08:37:55.370Z,23.65
2018-05-23T08:39:41.015Z,23.74
2018-05-23T08:40:48.577Z,23.77
2018-05-23T08:42:42.884Z,23.77
2018-05-23T08:43:34.158Z,23.80
2018-05-23T08:45:28.471Z,23.78
2018-05-23T08:46:28.381Z,23.74
2018-05-23T08:48:23.195Z,23.69
2018-05-23T08:49:31.779Z,23.69
2018-05-23T08:51:17.417Z,23.76
2018-05-23T08:52:24.976Z,23.87
2018-05-23T08:54:19.269Z,23.74
2018-05-23T08:55:10.562Z,23.78
2018-05-23T08:57:03.983Z,23.86
2018-05-23T08:58:03.794Z,23.83
2018-05-23T08:59:57.122Z,23.83
2018-05-23T09:00:57.032Z,23.84
2018-05-23T09:02:51.342Z,23.88
2018-05-23T09:03:51.254Z,23.84
2018-05-23T09:05:46.166Z,23.91
2018-05-23T09:06:45.469Z,23.86
2018-05-23T09:08:39.785Z,23.93
2018-05-23T09:09:39.698Z,23.99
2018-05-23T09:11:33.026Z,23.96
2018-05-23T09:12:32.992Z,23.93
2018-05-23T09:14:27.259Z,23.99
2018-05-23T09:15:27.156Z,24.02
2018-05-23T09:17:21.453Z,23.91
2018-05-23T09:18:21.372Z,23.95
2018-05-23T09:20:15.677Z,23.95
2018-05-23T09:21:15.589Z,23.98
2018-05-23T09:23:09.902Z,24.06
2018-05-23T09:24:12.468Z,24.10
2018-05-23T09:26:03.138Z,24.16
2018-05-23T09:27:03.048Z,24.10
2018-05-23T09:28:56.415Z,24.20
2018-05-23T09:29:56.308Z,24.17
2018-05-23T09:31:50.633Z,24.21
2018-05-23T09:32:50.516Z,24.29
2018-05-23T09:34:44.839Z,24.18
2018-05-23T09:35:44.737Z,24.21
2018-05-23T09:37:39.041Z,24.33
2018-05-23T09:38:38.952Z,24.33
2018-05-23T09:40:32.269Z,24.28
2018-05-23T09:41:32.187Z,24.38
2018-05-23T09:43:25.648Z,24.40
2018-05-23T09:44:25.438Z,24.42
2018-05-23T09:46:18.935Z,24.61
2018-05-23T09:47:18.843Z,24.51
2018-05-23T09:49:13.148Z,24.57
2018-05-23T09:50:13.064Z,24.61
2018-05-23T09:52:08.351Z,24.51
2018-05-23T09:53:08.270Z,24.54
2018-05-23T09:55:01.628Z,24.60
2018-05-23T09:56:01.507Z,24.63
2018-05-23T09:57:54.828Z,24.69
2018-05-23T09:58:54.744Z,24.70
2018-05-23T09:59:54.683Z,24.65
2018-05-23T10:00:54.625Z,24.69
2018-05-23T10:01:54.568Z,24.74
2018-05-23T10:02:54.518Z,24.80
2018-05-23T10:03:54.473Z,24.80
2018-05-23T10:04:54.405Z,24.78
2018-05-23T10:05:54.347Z,24.89
2018-05-23T10:06:54.292Z,24.77
2018-05-23T10:07:54.236Z,24.89
2018-05-23T10:08:54.177Z,24.89
2018-05-23T10:09:54.129Z,25.01
2018-05-23T10:10:54.097Z,25.01
2018-05-23T10:11:54.015Z,24.98
2018-05-23T10:12:53.962Z,24.99
2018-05-23T10:13:53.905Z,25.08
2018-05-23T10:14:53.847Z,25.04
2018-05-23T10:15:53.792Z,25.11
2018-05-23T10:16:53.769Z,25.14
2018-05-23T10:17:53.682Z,25.18
2018-05-23T10:18:53.628Z,25.23
2018-05-23T10:19:53.585Z,25.23
2018-05-23T10:20:53.517Z,25.31
2018-05-23T10:21:53.465Z,25.35
2018-05-23T10:22:53.410Z,25.31
2018-05-23T10:23:53.355Z,25.44
2018-05-23T10:24:53.313Z,25.46
2018-05-23T10:25:53.250Z,25.51
2018-05-23T10:26:53.197Z,25.43
2018-05-23T10:27:53.132Z,25.50
2018-05-23T10:28:53.078Z,25.50
2018-05-23T10:29:53.019Z,25.54
2018-05-23T10:30:52.966Z,25.53
2018-05-23T10:31:52.913Z,25.55
2018-05-23T10:32:52.855Z,25.44
2018-05-23T10:33:52.804Z,25.47
2018-05-23T10:34:52.751Z,25.47
2018-05-23T10:35:52.693Z,25.59
2018-05-23T10:36:52.639Z,25.58
2018-05-23T10:37:52.590Z,25.58
2018-05-23T10:38:52.539Z,25.54
2018-05-23T10:39:52.476Z,25.54
2018-05-23T10:40:52.419Z,25.50
2018-05-23T10:41:52.373Z,25.47
2018-05-23T10:42:52.313Z,25.36
2018-05-23T10:43:52.254Z,25.31
2018-05-23T10:44:52.204Z,25.43
2018-05-23T10:45:52.151Z,25.35
2018-05-23T10:46:52.088Z,25.26
2018-05-23T10:47:52.038Z,25.28
2018-05-23T10:48:51.980Z,25.33
2018-05-23T10:49:51.945Z,25.28
2018-05-23T10:50:51.895Z,25.36
2018-05-23T10:51:51.832Z,25.40
2018-05-23T10:52:51.784Z,25.26
2018-05-23T10:53:51.712Z,25.32
2018-05-23T10:54:51.663Z,25.21
2018-05-23T10:55:51.626Z,25.13
2018-05-23T10:56:51.553Z,25.14
2018-05-23T10:57:51.487Z,25.17
2018-05-23T10:58:51.456Z,25.03
2018-05-23T10:59:51.404Z,25.10
2018-05-23T11:00:51.319Z,25.10
2018-05-23T11:01:51.266Z,25.06
2018-05-23T11:02:51.303Z,25.07
2018-05-23T11:03:51.166Z,25.14
2018-05-23T11:04:51.102Z,25.08
2018-05-23T11:05:51.112Z,25.13
2018-05-23T11:06:51.004Z,25.22
2018-05-23T11:07:50.952Z,25.23
2018-05-23T11:08:50.912Z,25.18
2018-05-23T11:09:50.846Z,25.14
2018-05-23T11:10:50.787Z,25.18
2018-05-23T11:11:50.736Z,25.25
2018-05-23T11:12:50.676Z,25.26
2018-05-23T11:13:50.633Z,25.23
2018-05-23T11:14:50.594Z,25.22
2018-05-23T11:15:50.520Z,25.25
2018-05-23T11:16:50.471Z,25.31
2018-05-23T11:17:50.419Z,25.23
2018-05-23T11:18:50.371Z,25.28
2018-05-23T11:19:50.313Z,25.33
2018-05-23T11:20:50.261Z,25.18
2018-05-23T11:21:50.228Z,25.29
2018-05-23T11:22:50.164Z,25.28
2018-05-23T11:23:50.136Z,25.35
2018-05-23T11:24:50.063Z,25.43
2018-05-23T11:25:50.008Z,25.29
2018-05-23T11:26:49.963Z,25.36
2018-05-23T11:27:49.934Z,25.31
2018-05-23T11:28:49.868Z,25.53
2018-05-23T11:29:49.893Z,25.46
2018-05-23T11:30:49.777Z,25.48
2018-05-23T11:31:49.718Z,25.55
2018-05-23T11:32:49.673Z,25.68
2018-05-23T11:33:49.622Z,25.69
2018-05-23T11:34:49.609Z,25.65
2018-05-23T11:35:49.541Z,25.69
2018-05-23T11:36:49.480Z,25.70
2018-05-23T11:37:49.438Z,25.72
2018-05-23T11:38:49.395Z,25.70
2018-05-23T11:39:49.377Z,25.70
2018-05-23T11:40:49.295Z,25.70
2018-05-23T11:41:49.265Z,25.69
2018-05-23T11:42:49.204Z,25.70
2018-05-23T11:43:49.159Z,25.77
2018-05-23T11:44:49.114Z,25.78
2018-05-23T11:45:49.069Z,25.80
2018-05-23T11:46:49.027Z,25.88
2018-05-23T11:47:48.982Z,26.02
2018-05-23T11:48:48.937Z,26.05
2018-05-23T11:49:48.894Z,26.06
2018-05-23T11:50:48.852Z,26.06
2018-05-23T11:51:48.807Z,26.13
2018-05-23T11:52:48.761Z,26.19
2018-05-23T11:53:48.715Z,26.22
2018-05-23T11:54:48.667Z,26.33
2018-05-23T11:55:48.624Z,26.48
2018-05-23T11:56:48.593Z,26.59
2018-05-23T11:57:48.542Z,26.58
2018-05-23T11:58:48.501Z,26.66
2018-05-23T11:59:48.458Z,26.59
2018-05-23T12:00:48.413Z,26.70
2018-05-23T12:01:48.375Z,26.73
2018-05-23T12:02:48.323Z,26.77
2018-05-23T12:03:48.283Z,26.68
2018-05-23T12:04:48.291Z,26.71
2018-05-23T12:05:48.197Z,26.65
2018-05-23T12:06:48.157Z,26.73
2018-05-23T12:07:48.115Z,26.56
2018-05-23T12:08:48.070Z,26.70
2018-05-23T12:09:48.028Z,26.74
2018-05-23T12:10:47.988Z,26.77
2018-05-23T12:11:47.949Z,26.89
2018-05-23T12:12:47.902Z,26.88
2018-05-23T12:13:47.861Z,26.92
2018-05-23T12:14:47.820Z,26.99
2018-05-23T12:15:47.774Z,26.92
2018-05-23T12:16:47.738Z,27.02
2018-05-23T12:17:47.688Z,27.18
2018-05-23T12:18:47.648Z,27.42
2018-05-23T12:19:47.608Z,27.32
2018-05-23T12:20:47.563Z,27.30
2018-05-23T12:21:47.522Z,27.22
2018-05-23T12:22:47.478Z,27.36
2018-05-23T12:23:47.440Z,27.42
2018-05-23T12:24:47.397Z,27.45
2018-05-23T12:25:47.359Z,27.58
2018-05-23T12:26:47.313Z,27.52
2018-05-23T12:27:47.269Z,27.48
2018-05-23T12:28:47.300Z,27.65
2018-05-23T12:29:47.188Z,27.55
2018-05-23T12:30:47.147Z,27.68
2018-05-23T12:31:47.108Z,27.96
2018-05-23T12:32:47.061Z,28.17
2018-05-23T12:33:47.024Z,28.32
2018-05-23T12:34:46.984Z,28.10
2018-05-23T12:35:46.968Z,28.04
2018-05-23T12:36:46.900Z,27.96
2018-05-23T12:37:46.857Z,27.87
2018-05-23T12:38:46.816Z,27.90
2018-05-23T12:39:46.784Z,27.85
2018-05-23T12:40:46.736Z,27.80
2018-05-23T12:41:46.697Z,27.85
2018-05-23T12:42:46.655Z,27.93
2018-05-23T12:43:46.613Z,27.95
2018-05-23T12:44:46.577Z,27.98
2018-05-23T12:45:46.531Z,28.45
2018-05-23T12:46:46.488Z,28.75
2018-05-23T12:47:46.446Z,29.12
2018-05-23T12:48:46.411Z,29.49
2018-05-23T12:49:46.390Z,29.84
2018-05-23T12:50:46.322Z,30.15
2018-05-23T12:51:46.281Z,30.57
2018-05-23T12:52:46.244Z,30.70
2018-05-23T12:53:46.209Z,30.83
2018-05-23T12:54:46.170Z,31.00
2018-05-23T12:55:46.123Z,31.15
2018-05-23T12:56:46.081Z,31.24
2018-05-23T12:57:46.040Z,31.22
2018-05-23T12:58:46.009Z,31.25
2018-05-23T12:59:45.955Z,31.43
2018-05-23T13:00:45.928Z,31.70
2018-05-23T13:01:45.876Z,31.99
2018-05-23T13:02:45.839Z,31.97
2018-05-23T13:03:45.796Z,32.21
2018-05-23T13:04:45.759Z,32.38
2018-05-23T13:05:45.734Z,32.60
2018-05-23T13:06:45.681Z,32.80
2018-05-23T13:07:45.642Z,32.74
2018-05-23T13:08:45.604Z,32.68
2018-05-23T13:09:45.567Z,32.68
2018-05-23T13:10:45.523Z,32.87
2018-05-23T13:11:45.485Z,32.90
2018-05-23T13:12:45.498Z,32.80
2018-05-23T13:13:45.432Z,32.80
2018-05-23T13:14:45.384Z,33.24
2018-05-23T13:15:45.331Z,33.47
2018-05-23T13:16:45.290Z,33.81